createdAt,value
2019-03-06T00:00:50.088Z,8.00
2019-03-06T00:03:30.685Z,8.10
2019-03-06T00:06:16.703Z,8.10
2019-03-06T00:08:41.700Z,8.00
2019-03-06T00:11:10.228Z,8.10
2019-03-06T00:13:58.038Z,8.10
2019-03-06T00:16:45.867Z,8.10
2019-03-06T00:19:27.104Z,8.20
2019-03-06T00:22:08.977Z,8.20
2019-03-06T00:31:00.256Z,8.20
2019-03-06T00:33:41.807Z,8.10
2019-03-06T00:36:23.746Z,8.10
2019-03-06T00:39:04.248Z,8.10
2019-03-06T00:41:44.824Z,8.20
2019-03-06T00:44:23.601Z,8.20
2019-03-06T00:47:04.920Z,8.10
2019-03-06T00:49:45.886Z,8.20
2019-03-06T00:52:26.861Z,8.30
2019-03-06T00:55:07.834Z,8.20
2019-03-06T00:57:48.732Z,8.20
2019-03-06T01:00:29.649Z,8.10
2019-03-06T01:03:10.431Z,8.20
2019-03-06T01:05:51.188Z,8.20
2019-03-06T01:08:31.956Z,8.10
2019-03-06T01:11:13.076Z,8.10
2019-03-06T01:13:53.621Z,8.20
2019-03-06T01:16:22.238Z,8.20
2019-03-06T01:19:10.036Z,8.20
2019-03-06T01:21:50.413Z,8.30
2019-03-06T01:24:31.335Z,8.30
2019-03-06T01:27:12.187Z,8.10
2019-03-06T01:29:53.327Z,8.10
2019-03-06T01:32:34.054Z,8.20
2019-03-06T01:38:40.734Z,8.30
2019-03-06T01:41:25.548Z,8.20
2019-03-06T01:44:10.374Z,8.30
2019-03-06T01:46:51.052Z,8.20
2019-03-06T01:49:31.880Z,8.20
2019-03-06T01:52:12.844Z,8.30
2019-03-06T01:54:41.365Z,8.30
2019-03-06T01:57:29.304Z,8.40
2019-03-06T02:00:09.635Z,8.30
2019-03-06T02:02:38.172Z,8.40
2019-03-06T02:05:26.638Z,8.30
2019-03-06T02:08:25.844Z,8.40
2019-03-06T02:11:14.188Z,8.30
2019-03-06T02:13:54.954Z,8.40
2019-03-06T02:16:35.586Z,8.40
2019-03-06T02:19:16.048Z,8.40
2019-03-06T02:21:57.045Z,8.40
2019-03-06T02:24:37.880Z,8.40
2019-03-06T02:27:18.944Z,8.30
2019-03-06T02:30:00.517Z,8.40
2019-03-06T02:32:41.483Z,8.40
2019-03-06T02:35:22.187Z,8.50
2019-03-06T02:38:02.959Z,8.50
2019-03-06T02:40:44.019Z,8.50
2019-03-06T02:43:25.047Z,8.60
2019-03-06T02:46:06.354Z,8.50
2019-03-06T02:48:46.720Z,8.50
2019-03-06T02:51:27.830Z,8.60
2019-03-06T02:54:08.727Z,8.60
2019-03-06T03:03:07.345Z,8.60
2019-03-06T03:08:47.378Z,8.60
2019-03-06T03:11:29.719Z,8.50
2019-03-06T03:14:10.559Z,8.60
2019-03-06T03:16:51.699Z,8.60
2019-03-06T03:19:33.176Z,8.60
2019-03-06T03:22:14.307Z,8.50
2019-03-06T03:24:55.193Z,8.60
2019-03-06T03:27:36.080Z,8.60
2019-03-06T03:30:16.971Z,8.70
2019-03-06T03:32:57.945Z,8.60
2019-03-06T03:35:38.538Z,8.60
2019-03-06T03:38:19.475Z,8.60
2019-03-06T03:41:00.433Z,8.60
2019-03-06T03:43:42.061Z,8.60
2019-03-06T03:46:22.933Z,8.70
2019-03-06T03:49:03.329Z,8.60
2019-03-06T03:51:43.829Z,8.60
2019-03-06T03:54:24.361Z,8.70
2019-03-06T03:57:05.220Z,8.80
2019-03-06T03:59:45.945Z,8.80
2019-03-06T04:02:26.579Z,8.90
2019-03-06T04:05:07.379Z,8.70
2019-03-06T04:07:48.544Z,8.70
2019-03-06T04:10:29.337Z,8.70
2019-03-06T04:12:57.809Z,8.70
2019-03-06T04:15:45.690Z,8.70
2019-03-06T04:18:14.282Z,8.70
2019-03-06T04:21:02.135Z,8.70
2019-03-06T04:23:43.076Z,8.70
2019-03-06T04:26:23.774Z,8.80
2019-03-06T04:28:52.863Z,8.80
2019-03-06T04:31:40.815Z,8.80
2019-03-06T04:34:21.373Z,8.80
2019-03-06T04:37:02.474Z,8.80
2019-03-06T04:39:43.061Z,8.80
2019-03-06T04:42:23.597Z,8.80
2019-03-06T04:45:04.163Z,9.00
2019-03-06T04:47:45.074Z,9.00
2019-03-06T04:50:25.898Z,9.00
2019-03-06T04:53:06.728Z,9.00
2019-03-06T04:55:47.713Z,9.00
2019-03-06T04:58:28.677Z,9.00
2019-03-06T05:01:09.532Z,9.10
2019-03-06T05:03:50.132Z,9.00
2019-03-06T05:06:31.086Z,9.00
2019-03-06T05:12:24.887Z,9.00
2019-03-06T05:15:05.535Z,9.10
2019-03-06T05:20:39.527Z,9.10
2019-03-06T05:23:19.937Z,9.20
2019-03-06T05:26:00.658Z,9.20
2019-03-06T05:28:41.354Z,9.10
2019-03-06T05:31:21.990Z,9.20
2019-03-06T05:34:02.575Z,9.20
2019-03-06T05:36:43.416Z,9.20
2019-03-06T05:39:24.068Z,9.20
2019-03-06T05:42:04.656Z,9.20
2019-03-06T05:44:45.411Z,9.20
2019-03-06T05:47:26.071Z,9.20
2019-03-06T05:50:06.876Z,9.20
2019-03-06T05:52:47.402Z,9.20
2019-03-06T05:55:27.857Z,9.20
2019-03-06T05:58:08.471Z,9.20
2019-03-06T06:00:49.100Z,9.20
2019-03-06T06:03:29.631Z,9.20
2019-03-06T06:06:10.516Z,9.20
2019-03-06T06:08:51.185Z,9.20
2019-03-06T06:11:31.900Z,9.30
2019-03-06T06:14:12.558Z,9.20
2019-03-06T06:16:53.159Z,9.30
2019-03-06T06:19:33.849Z,9.40
2019-03-06T06:25:09.279Z,9.30
2019-03-06T06:27:49.760Z,9.30
2019-03-06T06:30:30.676Z,9.30
2019-03-06T06:33:11.354Z,9.40
2019-03-06T06:35:51.702Z,9.30
2019-03-06T06:38:32.523Z,9.30
2019-03-06T06:41:13.350Z,9.40
2019-03-06T06:43:54.525Z,9.40
2019-03-06T06:46:35.513Z,9.40
2019-03-06T06:49:16.202Z,9.40
2019-03-06T06:51:57.019Z,9.40
2019-03-06T06:54:37.501Z,9.40
2019-03-06T06:57:18.269Z,9.40
2019-03-06T06:59:58.900Z,9.40
2019-03-06T07:02:58.649Z,9.40
2019-03-06T07:05:41.637Z,9.50
2019-03-06T07:08:41.884Z,9.50
2019-03-06T07:11:41.435Z,9.50
2019-03-06T07:17:33.954Z,9.60
2019-03-06T07:20:16.293Z,9.60
2019-03-06T07:23:16.681Z,9.60
2019-03-06T07:26:17.005Z,9.60
2019-03-06T07:29:01.900Z,9.60
2019-03-06T07:31:44.196Z,9.60
2019-03-06T07:34:44.260Z,9.70
2019-03-06T07:37:28.866Z,9.80
2019-03-06T07:46:42.138Z,10.00
2019-03-06T07:49:27.804Z,9.90
2019-03-06T07:52:09.957Z,9.80
2019-03-06T07:54:57.757Z,9.80
2019-03-06T07:58:05.269Z,9.90
2019-03-06T08:00:46.149Z,9.80
2019-03-06T08:03:27.130Z,9.90
2019-03-06T08:06:07.859Z,9.90
2019-03-06T08:08:48.574Z,9.90
2019-03-06T08:14:55.797Z,9.90
2019-03-06T08:17:55.958Z,9.90
2019-03-06T08:20:55.471Z,10.00
2019-03-06T08:23:55.956Z,10.00
2019-03-06T08:26:36.281Z,10.00
2019-03-06T08:29:16.928Z,10.00
2019-03-06T08:31:55.902Z,10.10
2019-03-06T08:34:43.763Z,10.10
2019-03-06T08:37:24.848Z,10.10
2019-03-06T08:40:05.594Z,10.20
2019-03-06T08:42:34.178Z,10.20
2019-03-06T08:45:43.045Z,10.20
2019-03-06T08:48:50.114Z,10.30
2019-03-06T08:51:32.495Z,10.30
2019-03-06T08:54:18.095Z,10.30
2019-03-06T08:57:18.101Z,10.40
2019-03-06T09:00:03.029Z,10.40
2019-03-06T09:08:33.492Z,10.50
2019-03-06T09:11:33.589Z,10.50
2019-03-06T09:14:16.143Z,10.60
2019-03-06T09:16:58.654Z,10.60
2019-03-06T09:19:41.404Z,10.60
2019-03-06T09:22:26.837Z,10.60
2019-03-06T09:25:26.378Z,10.70
2019-03-06T09:28:14.239Z,10.80
2019-03-06T09:39:42.842Z,11.00
2019-03-06T09:42:42.380Z,11.10
2019-03-06T09:45:27.108Z,11.10
2019-03-06T09:48:12.779Z,11.20
2019-03-06T09:53:49.288Z,11.30
2019-03-06T09:59:41.884Z,11.50
2019-03-06T10:02:42.218Z,11.50
2019-03-06T10:08:37.932Z,11.70
2019-03-06T10:11:25.594Z,11.80
2019-03-06T10:14:11.338Z,11.80
2019-03-06T10:16:56.918Z,11.90
2019-03-06T10:19:42.787Z,12.00
2019-03-06T10:22:11.349Z,12.10
2019-03-06T10:24:59.274Z,12.10
2019-03-06T10:27:27.876Z,12.20
2019-03-06T10:30:18.535Z,12.30
2019-03-06T10:32:58.994Z,12.40
2019-03-06T10:35:40.061Z,12.40
2019-03-06T10:38:20.635Z,12.40
2019-03-06T10:40:49.244Z,12.40
2019-03-06T10:43:37.117Z,12.40
2019-03-06T10:46:26.716Z,12.40
2019-03-06T10:49:07.953Z,12.50
2019-03-06T10:51:48.527Z,12.50
2019-03-06T10:54:29.481Z,12.50
2019-03-06T10:57:11.825Z,12.60
2019-03-06T10:59:52.960Z,12.60
2019-03-06T11:02:36.721Z,12.60
2019-03-06T11:05:45.337Z,12.70
2019-03-06T11:08:33.346Z,12.70
2019-03-06T11:11:14.334Z,12.70
2019-03-06T11:13:54.977Z,12.70
2019-03-06T11:16:38.307Z,13.00
2019-03-06T11:19:18.367Z,13.00
2019-03-06T11:21:58.899Z,12.90
2019-03-06T11:27:21.906Z,12.90
2019-03-06T11:30:02.692Z,12.80
2019-03-06T11:32:43.396Z,12.80
2019-03-06T11:35:23.946Z,12.80
2019-03-06T11:38:04.828Z,12.90
2019-03-06T11:40:45.537Z,13.00
2019-03-06T11:43:26.237Z,13.00
2019-03-06T11:46:07.148Z,13.00
2019-03-06T11:48:47.840Z,13.00
2019-03-06T11:51:28.332Z,12.90
2019-03-06T11:54:08.917Z,12.80
2019-03-06T11:56:49.705Z,12.80
2019-03-06T11:59:30.267Z,12.80
2019-03-06T12:02:10.966Z,12.80
2019-03-06T12:04:51.400Z,12.70
2019-03-06T12:07:32.205Z,12.60
2019-03-06T12:10:14.233Z,12.60
2019-03-06T12:12:54.569Z,12.60
2019-03-06T12:15:35.149Z,12.70
2019-03-06T12:18:15.615Z,12.60
2019-03-06T12:20:56.155Z,12.60
2019-03-06T12:23:36.996Z,12.60
2019-03-06T12:26:17.548Z,12.60
2019-03-06T12:28:57.948Z,12.50
2019-03-06T12:31:38.639Z,12.60
2019-03-06T12:34:19.557Z,12.60
2019-03-06T12:36:48.176Z,12.50
2019-03-06T12:39:36.061Z,12.50
2019-03-06T12:45:27.296Z,12.60
2019-03-06T12:48:07.572Z,12.60
2019-03-06T12:50:55.157Z,12.70
2019-03-06T12:53:31.253Z,12.70
2019-03-06T12:59:23.048Z,12.70
2019-03-06T13:05:16.911Z,12.70
2019-03-06T13:07:57.587Z,12.70
2019-03-06T13:10:38.314Z,12.70
2019-03-06T13:13:18.937Z,12.60
2019-03-06T13:15:59.384Z,12.70
2019-03-06T13:18:27.871Z,12.70
2019-03-06T13:21:29.717Z,12.70
2019-03-06T13:24:05.393Z,12.70
2019-03-06T13:26:45.761Z,12.70
2019-03-06T13:29:26.380Z,12.70
2019-03-06T13:32:11.654Z,12.80
2019-03-06T13:34:51.258Z,12.80
2019-03-06T13:37:32.542Z,12.80
2019-03-06T13:40:18.493Z,12.80
2019-03-06T13:42:56.060Z,12.80
2019-03-06T13:45:37.495Z,12.80
2019-03-06T13:48:18.527Z,12.90
2019-03-06T13:50:59.677Z,12.90
2019-03-06T13:53:41.016Z,12.90
2019-03-06T14:05:09.985Z,13.10
2019-03-06T14:07:56.249Z,13.00
2019-03-06T14:10:33.284Z,13.00
2019-03-06T14:13:14.098Z,13.00
2019-03-06T14:15:54.864Z,13.00
2019-03-06T14:18:35.407Z,13.00
2019-03-06T14:21:16.385Z,12.90
2019-03-06T14:23:57.624Z,13.00
2019-03-06T14:26:38.420Z,13.00
2019-03-06T14:29:06.871Z,12.90
2019-03-06T14:31:54.819Z,12.90
2019-03-06T14:34:42.712Z,12.90
2019-03-06T14:37:23.376Z,12.90
2019-03-06T14:40:10.034Z,12.90
2019-03-06T14:42:48.261Z,12.90
2019-03-06T14:45:28.769Z,12.80
2019-03-06T14:48:09.682Z,12.80
2019-03-06T14:50:50.104Z,12.90
2019-03-06T14:53:30.683Z,12.80
2019-03-06T14:56:11.329Z,12.70
2019-03-06T14:58:51.862Z,12.60
2019-03-06T15:01:32.433Z,12.60
2019-03-06T15:04:13.230Z,12.50
2019-03-06T15:06:53.882Z,12.50
2019-03-06T15:09:34.341Z,12.60
2019-03-06T15:12:15.070Z,12.50
2019-03-06T15:14:55.616Z,12.50
2019-03-06T15:17:35.909Z,12.50
2019-03-06T15:20:16.986Z,12.60
2019-03-06T15:22:57.821Z,12.60
2019-03-06T15:25:38.334Z,12.60
2019-03-06T15:28:19.430Z,12.60
2019-03-06T15:33:22.850Z,12.60
2019-03-06T15:36:10.827Z,12.60
2019-03-06T15:38:58.700Z,12.60
2019-03-06T15:41:39.860Z,12.60
2019-03-06T15:44:08.453Z,12.70
2019-03-06T15:46:56.433Z,12.60
2019-03-06T15:49:25.308Z,12.60
2019-03-06T15:52:13.259Z,12.70
2019-03-06T15:55:01.159Z,12.60
2019-03-06T15:57:41.460Z,12.70
2019-03-06T16:00:23.876Z,12.70
2019-03-06T16:03:08.014Z,12.60
2019-03-06T16:05:49.217Z,12.60
2019-03-06T16:08:30.109Z,12.60
2019-03-06T16:11:10.933Z,12.50
2019-03-06T16:13:51.912Z,12.50
2019-03-06T16:16:32.588Z,12.50
2019-03-06T16:19:13.315Z,12.40
2019-03-06T16:21:54.119Z,12.40
2019-03-06T16:24:34.713Z,12.30
2019-03-06T16:27:15.276Z,12.30
2019-03-06T16:29:55.962Z,12.20
2019-03-06T16:32:36.911Z,12.00
2019-03-06T16:35:17.834Z,12.00
2019-03-06T16:37:58.763Z,11.90
2019-03-06T16:40:39.684Z,11.80
2019-03-06T16:43:20.316Z,11.80
2019-03-06T16:46:01.004Z,11.80
2019-03-06T16:48:41.975Z,11.70
2019-03-06T16:51:23.044Z,11.80
2019-03-06T16:54:03.858Z,11.70
2019-03-06T16:56:44.916Z,11.60
2019-03-06T16:59:13.477Z,11.70
2019-03-06T17:02:01.410Z,11.70
2019-03-06T17:04:42.352Z,11.70
2019-03-06T17:07:22.961Z,11.70
2019-03-06T17:10:03.640Z,11.70
2019-03-06T17:12:44.540Z,11.70
2019-03-06T17:15:26.820Z,11.70
2019-03-06T17:18:07.265Z,11.70
2019-03-06T17:20:48.063Z,11.70
2019-03-06T17:23:28.940Z,11.70
2019-03-06T17:26:09.669Z,11.70
2019-03-06T17:28:50.471Z,11.70
2019-03-06T17:31:31.477Z,11.70
2019-03-06T17:34:12.143Z,11.70
2019-03-06T17:36:53.110Z,11.70
2019-03-06T17:39:34.174Z,11.70
2019-03-06T17:42:22.079Z,11.70
2019-03-06T17:45:10.050Z,11.70
2019-03-06T17:47:51.041Z,11.70
2019-03-06T17:50:31.894Z,11.70
2019-03-06T17:53:14.586Z,11.70
2019-03-06T17:55:43.185Z,11.60
2019-03-06T17:58:31.084Z,11.60
2019-03-06T18:04:20.774Z,11.60
2019-03-06T18:07:01.739Z,11.60
2019-03-06T18:09:42.511Z,11.50
2019-03-06T18:12:11.972Z,11.50
2019-03-06T18:14:40.621Z,11.60
2019-03-06T18:17:28.497Z,11.50
2019-03-06T18:20:08.920Z,11.50
2019-03-06T18:22:37.512Z,11.50
2019-03-06T18:25:25.673Z,11.50
2019-03-06T18:34:07.250Z,11.60
2019-03-06T18:36:47.740Z,11.50
2019-03-06T18:39:28.823Z,11.40
2019-03-06T18:42:09.616Z,11.40
2019-03-06T18:44:50.528Z,11.50
2019-03-06T18:47:31.251Z,11.40
2019-03-06T18:50:12.264Z,11.40
2019-03-06T18:52:52.866Z,11.40
2019-03-06T18:56:01.491Z,11.40
2019-03-06T18:58:49.709Z,11.40
2019-03-06T19:01:30.275Z,11.40
2019-03-06T19:03:58.817Z,11.40
2019-03-06T19:06:46.712Z,11.40
2019-03-06T19:09:27.519Z,11.40
2019-03-06T19:12:08.259Z,11.40
2019-03-06T19:14:49.647Z,11.40
2019-03-06T19:17:30.492Z,11.40
2019-03-06T19:20:12.776Z,11.40
2019-03-06T19:22:53.893Z,11.40
2019-03-06T19:25:34.525Z,11.40
2019-03-06T19:28:15.336Z,11.40
2019-03-06T19:30:55.956Z,11.40
2019-03-06T19:33:39.416Z,11.40
2019-03-06T19:36:20.352Z,11.40
2019-03-06T19:39:00.957Z,11.40
2019-03-06T19:41:41.663Z,11.40
2019-03-06T19:44:22.218Z,11.30
2019-03-06T19:47:03.023Z,11.40
2019-03-06T19:49:44.147Z,11.40
2019-03-06T19:52:25.073Z,11.40
2019-03-06T19:54:53.633Z,11.50
2019-03-06T19:57:22.268Z,11.50
2019-03-06T19:59:50.793Z,11.50
2019-03-06T20:02:38.814Z,11.50
2019-03-06T20:05:19.193Z,11.50
2019-03-06T20:08:01.650Z,11.50
2019-03-06T20:10:45.564Z,11.50
2019-03-06T20:13:26.173Z,11.50
2019-03-06T20:16:09.882Z,11.60
2019-03-06T20:18:50.847Z,11.60
2019-03-06T20:21:31.815Z,11.50
2019-03-06T20:24:13.068Z,11.50
2019-03-06T20:26:53.891Z,11.50
2019-03-06T20:29:34.772Z,11.60
2019-03-06T20:32:17.615Z,11.50
2019-03-06T20:38:13.761Z,11.40
2019-03-06T20:41:01.714Z,11.40
2019-03-06T20:43:49.600Z,11.40
2019-03-06T20:46:37.498Z,11.40
2019-03-06T20:49:25.356Z,11.40
2019-03-06T20:52:15.609Z,11.40
2019-03-06T20:54:56.158Z,11.50
2019-03-06T20:57:36.891Z,11.50
2019-03-06T21:00:18.120Z,11.40
2019-03-06T21:02:46.789Z,11.40
2019-03-06T21:05:34.675Z,11.40
2019-03-06T21:11:30.292Z,11.40
2019-03-06T21:14:12.772Z,11.40
2019-03-06T21:16:56.043Z,11.40
2019-03-06T21:19:24.574Z,11.40
2019-03-06T21:21:53.147Z,11.40
2019-03-06T21:24:42.688Z,11.40
2019-03-06T21:27:23.628Z,11.40
2019-03-06T21:30:04.333Z,11.40
2019-03-06T21:32:46.752Z,11.40
2019-03-06T21:35:28.107Z,11.40
2019-03-06T21:38:08.730Z,11.40
2019-03-06T21:40:49.357Z,11.50
2019-03-06T21:43:30.857Z,11.40
2019-03-06T21:46:11.418Z,11.40
2019-03-06T21:48:51.918Z,11.40
2019-03-06T21:51:34.254Z,11.50
2019-03-06T21:54:15.246Z,11.40
2019-03-06T21:56:56.064Z,11.40
2019-03-06T21:59:37.099Z,11.40
2019-03-06T22:02:17.920Z,11.40
2019-03-06T22:04:58.876Z,11.50
2019-03-06T22:07:39.825Z,11.40
2019-03-06T22:10:20.499Z,11.40
2019-03-06T22:12:49.113Z,11.40
2019-03-06T22:21:04.983Z,11.50
2019-03-06T22:23:50.386Z,11.40
2019-03-06T22:26:30.939Z,11.30
2019-03-06T22:29:12.757Z,11.30
2019-03-06T22:31:53.499Z,11.30
2019-03-06T22:34:34.261Z,11.40
2019-03-06T22:37:15.237Z,11.50
2019-03-06T22:39:56.161Z,11.40
2019-03-06T22:42:36.874Z,11.40
2019-03-06T22:45:17.680Z,11.50
2019-03-06T22:47:46.588Z,11.50
2019-03-06T22:50:34.581Z,11.50
2019-03-06T22:53:22.534Z,11.50
2019-03-06T22:56:03.514Z,11.50
2019-03-06T22:58:44.634Z,11.50
2019-03-06T23:01:25.542Z,11.50
2019-03-06T23:07:15.067Z,11.50
2019-03-06T23:09:56.141Z,11.50
2019-03-06T23:12:24.769Z,11.50
2019-03-06T23:14:53.324Z,11.50
2019-03-06T23:17:41.217Z,11.50
2019-03-06T23:20:29.076Z,11.50
2019-03-06T23:22:57.641Z,11.50
2019-03-06T23:25:26.244Z,11.50
2019-03-06T23:28:14.122Z,11.50
2019-03-06T23:31:02.012Z,11.50
2019-03-06T23:33:43.002Z,11.50
2019-03-06T23:36:23.829Z,11.50
2019-03-06T23:39:04.935Z,11.50
2019-03-06T23:41:45.448Z,11.50
2019-03-06T23:44:27.302Z,11.50
2019-03-06T23:46:55.810Z,11.50
2019-03-06T23:49:43.689Z,11.50
2019-03-06T23:55:15.620Z,11.50
2019-03-06T23:57:56.340Z,11.50
